sensor_id;sensor_type;location;lat;lon;timestamp;temperature;humidity
22779;DHT22;11556;51.194;3.800;2022-07-04T00:00:23;15.60;99.90
22779;DHT22;11556;51.194;3.800;2022-07-04T00:02:49;15.50;99.90
22779;DHT22;11556;51.194;3.800;2022-07-04T00:05:15;15.50;99.90
22779;DHT22;11556;51.194;3.800;2022-07-04T00:07:43;15.50;99.90
22779;DHT22;11556;51.194;3.800;2022-07-04T00:10:11;15.50;99.90
22779;DHT22;11556;51.194;3.800;2022-07-04T00:12:38;15.40;99.90
22779;DHT22;11556;51.194;3.800;2022-07-04T00:15:05;15.30;99.90
22779;DHT22;11556;51.194;3.800;2022-07-04T00:17:31;15.30;99.90
22779;DHT22;11556;51.194;3.800;2022-07-04T00:19:57;15.30;99.90
22779;DHT22;11556;51.194;3.800;2022-07-04T00:22:23;15.30;99.90
22779;DHT22;11556;51.194;3.800;2022-07-04T00:24:49;15.20;99.90
22779;DHT22;11556;51.194;3.800;2022-07-04T00:27:15;15.30;99.90
22779;DHT22;11556;51.194;3.800;2022-07-04T00:29:40;15.20;99.90
22779;DHT22;11556;51.194;3.800;2022-07-04T00:32:06;15.20;99.90
22779;DHT22;11556;51.194;3.800;2022-07-04T00:34:32;15.20;99.90
22779;DHT22;11556;51.194;3.800;2022-07-04T00:36:58;15.10;99.90
22779;DHT22;11556;51.194;3.800;2022-07-04T00:39:24;15.20;99.90
22779;DHT22;11556;51.194;3.800;2022-07-04T00:41:49;15.20;99.90
22779;DHT22;11556;51.194;3.800;2022-07-04T00:44:15;15.20;99.90
22779;DHT22;11556;51.194;3.800;2022-07-04T00:46:42;15.30;99.90
22779;DHT22;11556;51.194;3.800;2022-07-04T00:49:08;15.40;99.90
22779;DHT22;11556;51.194;3.800;2022-07-04T00:51:34;15.20;99.90
22779;DHT22;11556;51.194;3.800;2022-07-04T00:54:01;15.20;99.90
22779;DHT22;11556;51.194;3.800;2022-07-04T00:56:27;15.10;99.90
22779;DHT22;11556;51.194;3.800;2022-07-04T00:58:53;15.10;99.90
22779;DHT22;11556;51.194;3.800;2022-07-04T01:01:20;15.10;99.90
22779;DHT22;11556;51.194;3.800;2022-07-04T01:03:46;15.00;99.90
22779;DHT22;11556;51.194;3.800;2022-07-04T01:06:14;15.00;99.90
22779;DHT22;11556;51.194;3.800;2022-07-04T01:08:42;14.90;99.90
22779;DHT22;11556;51.194;3.800;2022-07-04T01:11:08;15.00;99.90
22779;DHT22;11556;51.194;3.800;2022-07-04T01:13:35;14.90;99.90
22779;DHT22;11556;51.194;3.800;2022-07-04T01:16:01;14.90;99.90
22779;DHT22;11556;51.194;3.800;2022-07-04T01:18:26;14.90;99.90
22779;DHT22;11556;51.194;3.800;2022-07-04T01:20:52;14.90;99.90
22779;DHT22;11556;51.194;3.800;2022-07-04T01:23:18;14.90;99.90
22779;DHT22;11556;51.194;3.800;2022-07-04T01:25:43;14.90;99.90
22779;DHT22;11556;51.194;3.800;2022-07-04T01:28:09;14.90;99.90
22779;DHT22;11556;51.194;3.800;2022-07-04T01:30:36;14.90;99.90
22779;DHT22;11556;51.194;3.800;2022-07-04T01:33:03;14.90;99.90
22779;DHT22;11556;51.194;3.800;2022-07-04T01:35:29;14.90;99.90
22779;DHT22;11556;51.194;3.800;2022-07-04T01:37:56;14.80;99.90
22779;DHT22;11556;51.194;3.800;2022-07-04T01:40:22;14.90;99.90
22779;DHT22;11556;51.194;3.800;2022-07-04T01:42:48;14.80;99.90
22779;DHT22;11556;51.194;3.800;2022-07-04T01:45:13;14.80;99.90
22779;DHT22;11556;51.194;3.800;2022-07-04T01:47:40;14.80;99.90
22779;DHT22;11556;51.194;3.800;2022-07-04T01:50:08;14.80;99.90
22779;DHT22;11556;51.194;3.800;2022-07-04T01:52:34;14.70;99.90
22779;DHT22;11556;51.194;3.800;2022-07-04T01:55:00;14.70;99.90
22779;DHT22;11556;51.194;3.800;2022-07-04T01:57:25;14.60;99.90
22779;DHT22;11556;51.194;3.800;2022-07-04T01:59:51;14.60;99.90
22779;DHT22;11556;51.194;3.800;2022-07-04T02:02:36;14.60;99.90
22779;DHT22;11556;51.194;3.800;2022-07-04T02:05:02;14.60;99.90
22779;DHT22;11556;51.194;3.800;2022-07-04T02:07:27;14.60;99.90
22779;DHT22;11556;51.194;3.800;2022-07-04T02:09:53;14.50;99.90
22779;DHT22;11556;51.194;3.800;2022-07-04T02:12:18;14.50;99.90
22779;DHT22;11556;51.194;3.800;2022-07-04T02:15:03;14.50;99.90
22779;DHT22;11556;51.194;3.800;2022-07-04T02:17:29;14.50;99.90
22779;DHT22;11556;51.194;3.800;2022-07-04T02:19:55;14.50;99.90
22779;DHT22;11556;51.194;3.800;2022-07-04T02:22:20;14.60;99.90
22779;DHT22;11556;51.194;3.800;2022-07-04T02:24:46;14.40;99.90
22779;DHT22;11556;51.194;3.800;2022-07-04T02:27:12;14.30;99.90
22779;DHT22;11556;51.194;3.800;2022-07-04T02:29:38;14.30;99.90
22779;DHT22;11556;51.194;3.800;2022-07-04T02:32:04;14.20;99.90
22779;DHT22;11556;51.194;3.800;2022-07-04T02:34:30;14.10;99.90
22779;DHT22;11556;51.194;3.800;2022-07-04T02:36:56;14.20;99.90
22779;DHT22;11556;51.194;3.800;2022-07-04T02:39:21;14.20;99.90
22779;DHT22;11556;51.194;3.800;2022-07-04T02:41:47;14.10;99.90
22779;DHT22;11556;51.194;3.800;2022-07-04T02:44:13;14.10;99.90
22779;DHT22;11556;51.194;3.800;2022-07-04T02:46:39;14.10;99.90
22779;DHT22;11556;51.194;3.800;2022-07-04T02:49:05;14.10;99.90
22779;DHT22;11556;51.194;3.800;2022-07-04T02:51:31;14.10;99.90
22779;DHT22;11556;51.194;3.800;2022-07-04T02:53:56;14.10;99.90
22779;DHT22;11556;51.194;3.800;2022-07-04T02:56:22;14.10;99.90
22779;DHT22;11556;51.194;3.800;2022-07-04T02:58:48;14.10;99.90
22779;DHT22;11556;51.194;3.800;2022-07-04T03:01:13;14.10;99.90
22779;DHT22;11556;51.194;3.800;2022-07-04T03:03:40;14.10;99.90
22779;DHT22;11556;51.194;3.800;2022-07-04T03:06:08;14.10;99.90
22779;DHT22;11556;51.194;3.800;2022-07-04T03:08:34;14.10;99.90
22779;DHT22;11556;51.194;3.800;2022-07-04T03:11:00;14.00;99.90
22779;DHT22;11556;51.194;3.800;2022-07-04T03:13:26;13.90;99.90
22779;DHT22;11556;51.194;3.800;2022-07-04T03:15:52;13.90;99.90
22779;DHT22;11556;51.194;3.800;2022-07-04T03:18:17;13.90;99.90
22779;DHT22;11556;51.194;3.800;2022-07-04T03:20:43;13.90;99.90
22779;DHT22;11556;51.194;3.800;2022-07-04T03:23:09;13.90;99.90
22779;DHT22;11556;51.194;3.800;2022-07-04T03:25:34;14.10;99.90
22779;DHT22;11556;51.194;3.800;2022-07-04T03:28:00;14.10;99.90
22779;DHT22;11556;51.194;3.800;2022-07-04T03:30:26;14.20;99.90
22779;DHT22;11556;51.194;3.800;2022-07-04T03:32:52;14.30;99.90
22779;DHT22;11556;51.194;3.800;2022-07-04T03:35:18;14.30;99.90
22779;DHT22;11556;51.194;3.800;2022-07-04T03:37:44;14.30;99.90
22779;DHT22;11556;51.194;3.800;2022-07-04T03:40:10;14.40;99.90
22779;DHT22;11556;51.194;3.800;2022-07-04T03:42:36;14.40;99.90
22779;DHT22;11556;51.194;3.800;2022-07-04T03:45:02;14.40;99.90
22779;DHT22;11556;51.194;3.800;2022-07-04T03:47:27;14.50;99.90
22779;DHT22;11556;51.194;3.800;2022-07-04T03:49:53;14.50;99.90
22779;DHT22;11556;51.194;3.800;2022-07-04T03:52:18;14.60;99.90
22779;DHT22;11556;51.194;3.800;2022-07-04T03:54:44;14.60;99.90
22779;DHT22;11556;51.194;3.800;2022-07-04T03:57:10;14.70;99.90
22779;DHT22;11556;51.194;3.800;2022-07-04T03:59:35;14.70;99.90
22779;DHT22;11556;51.194;3.800;2022-07-04T04:02:01;14.70;99.90
22779;DHT22;11556;51.194;3.800;2022-07-04T04:04:27;14.80;99.90
22779;DHT22;11556;51.194;3.800;2022-07-04T04:07:11;14.80;99.90
22779;DHT22;11556;51.194;3.800;2022-07-04T04:09:36;14.90;99.90
22779;DHT22;11556;51.194;3.800;2022-07-04T04:12:02;14.90;99.90
22779;DHT22;11556;51.194;3.800;2022-07-04T04:14:28;14.90;99.90
22779;DHT22;11556;51.194;3.800;2022-07-04T04:16:53;14.90;99.90
22779;DHT22;11556;51.194;3.800;2022-07-04T04:19:19;14.90;99.90
22779;DHT22;11556;51.194;3.800;2022-07-04T04:21:45;15.00;99.90
22779;DHT22;11556;51.194;3.800;2022-07-04T04:24:11;15.10;99.90
22779;DHT22;11556;51.194;3.800;2022-07-04T04:26:37;15.00;99.90
22779;DHT22;11556;51.194;3.800;2022-07-04T04:29:02;15.00;99.90
22779;DHT22;11556;51.194;3.800;2022-07-04T04:31:28;15.20;99.90
22779;DHT22;11556;51.194;3.800;2022-07-04T04:33:56;15.40;99.90
22779;DHT22;11556;51.194;3.800;2022-07-04T04:36:22;15.40;99.90
22779;DHT22;11556;51.194;3.800;2022-07-04T04:38:48;15.60;99.90
22779;DHT22;11556;51.194;3.800;2022-07-04T04:41:13;15.80;99.90
22779;DHT22;11556;51.194;3.800;2022-07-04T04:43:39;15.80;99.90
22779;DHT22;11556;51.194;3.800;2022-07-04T04:46:04;15.80;99.90
22779;DHT22;11556;51.194;3.800;2022-07-04T04:48:30;16.00;99.90
22779;DHT22;11556;51.194;3.800;2022-07-04T04:50:56;16.20;99.90
22779;DHT22;11556;51.194;3.800;2022-07-04T04:53:21;16.50;99.90
22779;DHT22;11556;51.194;3.800;2022-07-04T04:55:51;16.80;99.90
22779;DHT22;11556;51.194;3.800;2022-07-04T04:58:18;16.70;99.90
22779;DHT22;11556;51.194;3.800;2022-07-04T05:00:44;17.10;99.90
22779;DHT22;11556;51.194;3.800;2022-07-04T05:03:09;17.90;99.90
22779;DHT22;11556;51.194;3.800;2022-07-04T05:05:35;18.20;99.90
22779;DHT22;11556;51.194;3.800;2022-07-04T05:08:01;18.20;99.90
22779;DHT22;11556;51.194;3.800;2022-07-04T05:10:26;18.30;99.90
22779;DHT22;11556;51.194;3.800;2022-07-04T05:12:52;18.30;99.90
22779;DHT22;11556;51.194;3.800;2022-07-04T05:15:18;18.60;99.90
22779;DHT22;11556;51.194;3.800;2022-07-04T05:17:43;19.20;99.90
22779;DHT22;11556;51.194;3.800;2022-07-04T05:20:09;19.20;99.90
22779;DHT22;11556;51.194;3.800;2022-07-04T05:22:35;19.00;99.90
22779;DHT22;11556;51.194;3.800;2022-07-04T05:25:01;18.80;99.90
22779;DHT22;11556;51.194;3.800;2022-07-04T05:27:27;18.40;99.90
22779;DHT22;11556;51.194;3.800;2022-07-04T05:29:53;18.30;99.90
22779;DHT22;11556;51.194;3.800;2022-07-04T05:32:18;17.80;99.90
22779;DHT22;11556;51.194;3.800;2022-07-04T05:34:44;17.40;99.90
22779;DHT22;11556;51.194;3.800;2022-07-04T05:37:10;17.30;99.90
22779;DHT22;11556;51.194;3.800;2022-07-04T05:39:35;17.20;99.90
22779;DHT22;11556;51.194;3.800;2022-07-04T05:42:01;17.20;99.90
22779;DHT22;11556;51.194;3.800;2022-07-04T05:44:26;17.40;99.90
22779;DHT22;11556;51.194;3.800;2022-07-04T05:46:53;17.50;99.90
22779;DHT22;11556;51.194;3.800;2022-07-04T05:49:19;17.70;99.90
22779;DHT22;11556;51.194;3.800;2022-07-04T05:51:45;18.00;99.90
22779;DHT22;11556;51.194;3.800;2022-07-04T05:54:10;18.30;99.90
22779;DHT22;11556;51.194;3.800;2022-07-04T05:56:36;18.80;99.90
22779;DHT22;11556;51.194;3.800;2022-07-04T05:59:03;20.30;99.90
22779;DHT22;11556;51.194;3.800;2022-07-04T06:01:28;21.70;99.90
22779;DHT22;11556;51.194;3.800;2022-07-04T06:03:54;22.90;99.90
22779;DHT22;11556;51.194;3.800;2022-07-04T06:06:19;24.70;99.90
22779;DHT22;11556;51.194;3.800;2022-07-04T06:08:45;25.60;99.00
22779;DHT22;11556;51.194;3.800;2022-07-04T06:11:11;25.90;97.60
22779;DHT22;11556;51.194;3.800;2022-07-04T06:13:36;26.40;96.10
22779;DHT22;11556;51.194;3.800;2022-07-04T06:16:02;25.60;95.70
22779;DHT22;11556;51.194;3.800;2022-07-04T06:18:28;26.00;96.20
22779;DHT22;11556;51.194;3.800;2022-07-04T06:20:53;27.10;92.80
22779;DHT22;11556;51.194;3.800;2022-07-04T06:23:19;27.90;91.00
22779;DHT22;11556;51.194;3.800;2022-07-04T06:25:45;28.40;89.10
22779;DHT22;11556;51.194;3.800;2022-07-04T06:28:10;28.80;85.60
22779;DHT22;11556;51.194;3.800;2022-07-04T06:30:36;29.00;84.70
22779;DHT22;11556;51.194;3.800;2022-07-04T06:33:01;30.00;81.50
22779;DHT22;11556;51.194;3.800;2022-07-04T06:35:29;30.20;78.40
22779;DHT22;11556;51.194;3.800;2022-07-04T06:38:20;30.30;77.70
22779;DHT22;11556;51.194;3.800;2022-07-04T06:40:48;30.30;76.10
22779;DHT22;11556;51.194;3.800;2022-07-04T06:43:14;30.90;75.60
22779;DHT22;11556;51.194;3.800;2022-07-04T06:45:39;31.20;74.00
22779;DHT22;11556;51.194;3.800;2022-07-04T06:48:06;31.40;72.60
22779;DHT22;11556;51.194;3.800;2022-07-04T06:50:32;31.70;70.50
22779;DHT22;11556;51.194;3.800;2022-07-04T06:53:03;31.70;70.40
22779;DHT22;11556;51.194;3.800;2022-07-04T06:55:30;32.20;69.40
22779;DHT22;11556;51.194;3.800;2022-07-04T06:57:55;32.40;68.20
22779;DHT22;11556;51.194;3.800;2022-07-04T07:00:21;31.70;68.40
22779;DHT22;11556;51.194;3.800;2022-07-04T07:02:47;31.60;69.00
22779;DHT22;11556;51.194;3.800;2022-07-04T07:05:12;31.70;68.70
22779;DHT22;11556;51.194;3.800;2022-07-04T07:07:38;32.10;67.70
22779;DHT22;11556;51.194;3.800;2022-07-04T07:10:04;31.90;66.80
22779;DHT22;11556;51.194;3.800;2022-07-04T07:12:32;31.80;67.40
22779;DHT22;11556;51.194;3.800;2022-07-04T07:14:59;31.60;67.90
22779;DHT22;11556;51.194;3.800;2022-07-04T07:17:25;31.30;67.80
22779;DHT22;11556;51.194;3.800;2022-07-04T07:19:51;31.20;68.60
22779;DHT22;11556;51.194;3.800;2022-07-04T07:22:17;31.70;67.70
22779;DHT22;11556;51.194;3.800;2022-07-04T07:24:43;31.80;67.40
22779;DHT22;11556;51.194;3.800;2022-07-04T07:27:09;31.90;66.80
22779;DHT22;11556;51.194;3.800;2022-07-04T07:29:36;32.00;67.10
22779;DHT22;11556;51.194;3.800;2022-07-04T07:32:02;32.50;66.30
22779;DHT22;11556;51.194;3.800;2022-07-04T07:34:28;32.70;65.70
22779;DHT22;11556;51.194;3.800;2022-07-04T07:36:54;32.70;64.70
22779;DHT22;11556;51.194;3.800;2022-07-04T07:39:19;32.70;64.80
22779;DHT22;11556;51.194;3.800;2022-07-04T07:41:45;32.40;65.60
22779;DHT22;11556;51.194;3.800;2022-07-04T07:44:11;32.00;67.70
22779;DHT22;11556;51.194;3.800;2022-07-04T07:46:37;31.10;69.40
22779;DHT22;11556;51.194;3.800;2022-07-04T07:49:03;30.00;72.30
22779;DHT22;11556;51.194;3.800;2022-07-04T07:51:29;29.20;75.10
22779;DHT22;11556;51.194;3.800;2022-07-04T07:53:55;28.60;77.20
22779;DHT22;11556;51.194;3.800;2022-07-04T07:56:20;28.20;78.50
22779;DHT22;11556;51.194;3.800;2022-07-04T07:58:46;28.00;80.80
22779;DHT22;11556;51.194;3.800;2022-07-04T08:01:12;28.00;79.80
22779;DHT22;11556;51.194;3.800;2022-07-04T08:03:37;27.90;81.50
22779;DHT22;11556;51.194;3.800;2022-07-04T08:06:21;28.30;80.60
22779;DHT22;11556;51.194;3.800;2022-07-04T08:08:47;29.20;78.50
22779;DHT22;11556;51.194;3.800;2022-07-04T08:11:13;30.20;75.60
22779;DHT22;11556;51.194;3.800;2022-07-04T08:13:39;31.00;72.40
22779;DHT22;11556;51.194;3.800;2022-07-04T08:16:05;32.00;68.50
22779;DHT22;11556;51.194;3.800;2022-07-04T08:18:32;32.30;67.40
22779;DHT22;11556;51.194;3.800;2022-07-04T08:20:58;32.20;68.90
22779;DHT22;11556;51.194;3.800;2022-07-04T08:23:25;32.90;66.70
22779;DHT22;11556;51.194;3.800;2022-07-04T08:25:50;33.20;64.60
22779;DHT22;11556;51.194;3.800;2022-07-04T08:28:16;33.30;63.20
22779;DHT22;11556;51.194;3.800;2022-07-04T08:30:41;34.60;61.90
22779;DHT22;11556;51.194;3.800;2022-07-04T08:33:07;35.60;59.10
22779;DHT22;11556;51.194;3.800;2022-07-04T08:35:33;35.40;58.70
22779;DHT22;11556;51.194;3.800;2022-07-04T08:37:59;34.40;60.40
22779;DHT22;11556;51.194;3.800;2022-07-04T08:40:26;34.30;59.80
22779;DHT22;11556;51.194;3.800;2022-07-04T08:42:53;34.20;60.20
22779;DHT22;11556;51.194;3.800;2022-07-04T08:45:31;34.70;59.90
22779;DHT22;11556;51.194;3.800;2022-07-04T08:48:05;35.30;57.50
22779;DHT22;11556;51.194;3.800;2022-07-04T08:50:38;35.20;56.20
22779;DHT22;11556;51.194;3.800;2022-07-04T08:53:13;35.20;56.30
22779;DHT22;11556;51.194;3.800;2022-07-04T08:55:40;35.60;54.90
22779;DHT22;11556;51.194;3.800;2022-07-04T08:58:25;35.60;55.80
22779;DHT22;11556;51.194;3.800;2022-07-04T09:00:52;35.60;55.20
22779;DHT22;11556;51.194;3.800;2022-07-04T09:03:18;35.90;55.20
22779;DHT22;11556;51.194;3.800;2022-07-04T09:05:44;36.50;53.50
22779;DHT22;11556;51.194;3.800;2022-07-04T09:08:10;35.90;55.20
22779;DHT22;11556;51.194;3.800;2022-07-04T09:10:36;36.30;54.10
22779;DHT22;11556;51.194;3.800;2022-07-04T09:13:07;36.50;53.10
22779;DHT22;11556;51.194;3.800;2022-07-04T09:15:33;36.90;52.00
22779;DHT22;11556;51.194;3.800;2022-07-04T09:18:02;36.80;51.60
22779;DHT22;11556;51.194;3.800;2022-07-04T09:20:30;36.80;51.10
22779;DHT22;11556;51.194;3.800;2022-07-04T09:22:56;36.80;50.30
22779;DHT22;11556;51.194;3.800;2022-07-04T09:25:24;37.30;50.20
22779;DHT22;11556;51.194;3.800;2022-07-04T09:27:54;37.10;48.30
22779;DHT22;11556;51.194;3.800;2022-07-04T09:30:23;35.30;50.60
22779;DHT22;11556;51.194;3.800;2022-07-04T09:32:51;35.10;53.00
22779;DHT22;11556;51.194;3.800;2022-07-04T09:35:24;35.60;51.70
22779;DHT22;11556;51.194;3.800;2022-07-04T09:37:54;35.00;51.40
22779;DHT22;11556;51.194;3.800;2022-07-04T09:40:35;35.40;50.10
22779;DHT22;11556;51.194;3.800;2022-07-04T09:43:20;34.50;50.40
22779;DHT22;11556;51.194;3.800;2022-07-04T09:45:57;34.80;53.10
22779;DHT22;11556;51.194;3.800;2022-07-04T09:48:23;35.10;51.20
22779;DHT22;11556;51.194;3.800;2022-07-04T09:50:49;35.10;50.60
22779;DHT22;11556;51.194;3.800;2022-07-04T09:53:15;34.30;51.80
22779;DHT22;11556;51.194;3.800;2022-07-04T09:55:41;33.30;52.90
22779;DHT22;11556;51.194;3.800;2022-07-04T09:58:10;33.10;54.10
22779;DHT22;11556;51.194;3.800;2022-07-04T10:00:38;33.10;54.00
22779;DHT22;11556;51.194;3.800;2022-07-04T10:03:17;34.50;53.60
22779;DHT22;11556;51.194;3.800;2022-07-04T10:05:44;34.60;51.30
22779;DHT22;11556;51.194;3.800;2022-07-04T10:08:10;34.40;52.00
22779;DHT22;11556;51.194;3.800;2022-07-04T10:10:37;34.20;53.00
22779;DHT22;11556;51.194;3.800;2022-07-04T10:13:11;34.50;53.20
22779;DHT22;11556;51.194;3.800;2022-07-04T10:15:39;34.50;51.70
22779;DHT22;11556;51.194;3.800;2022-07-04T10:18:06;35.20;50.80
22779;DHT22;11556;51.194;3.800;2022-07-04T10:20:32;35.50;50.20
22779;DHT22;11556;51.194;3.800;2022-07-04T10:22:58;34.90;50.70
22779;DHT22;11556;51.194;3.800;2022-07-04T10:25:25;33.60;51.70
22779;DHT22;11556;51.194;3.800;2022-07-04T10:27:51;32.70;54.30
22779;DHT22;11556;51.194;3.800;2022-07-04T10:30:37;32.80;54.00
22779;DHT22;11556;51.194;3.800;2022-07-04T10:33:06;33.90;53.90
22779;DHT22;11556;51.194;3.800;2022-07-04T10:36:04;34.40;51.70
22779;DHT22;11556;51.194;3.800;2022-07-04T10:38:34;34.90;52.30
22779;DHT22;11556;51.194;3.800;2022-07-04T10:41:11;34.10;49.50
22779;DHT22;11556;51.194;3.800;2022-07-04T10:43:50;32.70;52.20
22779;DHT22;11556;51.194;3.800;2022-07-04T10:51:53;31.20;56.90
22779;DHT22;11556;51.194;3.800;2022-07-04T10:54:32;31.60;57.60
22779;DHT22;11556;51.194;3.800;2022-07-04T10:57:16;33.00;56.50
22779;DHT22;11556;51.194;3.800;2022-07-04T11:04:55;35.50;50.60
22779;DHT22;11556;51.194;3.800;2022-07-04T11:17:53;36.20;49.30
22779;DHT22;11556;51.194;3.800;2022-07-04T11:20:20;36.00;50.80
22779;DHT22;11556;51.194;3.800;2022-07-04T11:22:45;35.70;51.10
22779;DHT22;11556;51.194;3.800;2022-07-04T11:25:12;35.00;51.40
22779;DHT22;11556;51.194;3.800;2022-07-04T11:27:38;33.70;53.80
22779;DHT22;11556;51.194;3.800;2022-07-04T11:30:04;32.10;56.00
22779;DHT22;11556;51.194;3.800;2022-07-04T11:32:31;30.50;59.20
22779;DHT22;11556;51.194;3.800;2022-07-04T11:34:57;29.30;63.40
22779;DHT22;11556;51.194;3.800;2022-07-04T11:37:23;28.30;64.40
22779;DHT22;11556;51.194;3.800;2022-07-04T11:39:53;27.50;67.30
22779;DHT22;11556;51.194;3.800;2022-07-04T11:42:38;27.20;69.10
22779;DHT22;11556;51.194;3.800;2022-07-04T11:45:23;27.50;72.30
22779;DHT22;11556;51.194;3.800;2022-07-04T11:47:48;29.00;67.00
22779;DHT22;11556;51.194;3.800;2022-07-04T11:50:15;30.80;61.30
22779;DHT22;11556;51.194;3.800;2022-07-04T11:52:48;31.20;60.00
22779;DHT22;11556;51.194;3.800;2022-07-04T11:55:19;30.70;60.00
22779;DHT22;11556;51.194;3.800;2022-07-04T11:57:48;30.00;62.70
22779;DHT22;11556;51.194;3.800;2022-07-04T12:02:41;30.80;61.00
22779;DHT22;11556;51.194;3.800;2022-07-04T12:05:09;31.70;59.10
22779;DHT22;11556;51.194;3.800;2022-07-04T12:07:37;32.90;58.20
22779;DHT22;11556;51.194;3.800;2022-07-04T12:10:29;33.80;55.00
22779;DHT22;11556;51.194;3.800;2022-07-04T12:15:23;35.40;52.70
22779;DHT22;11556;51.194;3.800;2022-07-04T12:17:53;36.20;51.20
22779;DHT22;11556;51.194;3.800;2022-07-04T12:20:21;37.30;52.20
22779;DHT22;11556;51.194;3.800;2022-07-04T12:22:58;37.80;49.00
22779;DHT22;11556;51.194;3.800;2022-07-04T12:28:00;38.00;46.20
22779;DHT22;11556;51.194;3.800;2022-07-04T12:30:29;38.30;46.20
22779;DHT22;11556;51.194;3.800;2022-07-04T12:33:03;37.70;46.60
22779;DHT22;11556;51.194;3.800;2022-07-04T12:40:49;35.80;49.90
22779;DHT22;11556;51.194;3.800;2022-07-04T12:43:15;35.30;49.90
22779;DHT22;11556;51.194;3.800;2022-07-04T12:45:43;34.70;50.50
22779;DHT22;11556;51.194;3.800;2022-07-04T12:48:21;34.10;52.90
22779;DHT22;11556;51.194;3.800;2022-07-04T12:50:47;33.60;54.80
22779;DHT22;11556;51.194;3.800;2022-07-04T12:53:13;33.20;52.80
22779;DHT22;11556;51.194;3.800;2022-07-04T12:55:43;33.10;55.60
22779;DHT22;11556;51.194;3.800;2022-07-04T12:58:09;33.00;54.50
22779;DHT22;11556;51.194;3.800;2022-07-04T13:00:35;33.10;55.10
22779;DHT22;11556;51.194;3.800;2022-07-04T13:03:00;32.90;54.80
22779;DHT22;11556;51.194;3.800;2022-07-04T13:05:27;32.90;55.10
22779;DHT22;11556;51.194;3.800;2022-07-04T13:07:52;32.50;55.50
22779;DHT22;11556;51.194;3.800;2022-07-04T13:10:18;32.30;55.80
22779;DHT22;11556;51.194;3.800;2022-07-04T13:12:44;32.10;56.00
22779;DHT22;11556;51.194;3.800;2022-07-04T13:15:09;32.00;56.30
22779;DHT22;11556;51.194;3.800;2022-07-04T13:17:37;32.30;58.70
22779;DHT22;11556;51.194;3.800;2022-07-04T13:20:03;33.00;57.40
22779;DHT22;11556;51.194;3.800;2022-07-04T13:22:29;33.50;53.70
22779;DHT22;11556;51.194;3.800;2022-07-04T13:24:55;33.80;52.90
22779;DHT22;11556;51.194;3.800;2022-07-04T13:27:21;33.50;53.40
22779;DHT22;11556;51.194;3.800;2022-07-04T13:29:46;33.20;53.10
22779;DHT22;11556;51.194;3.800;2022-07-04T13:32:12;31.60;56.60
22779;DHT22;11556;51.194;3.800;2022-07-04T13:34:38;31.50;58.00
22779;DHT22;11556;51.194;3.800;2022-07-04T13:37:04;31.60;55.90
22779;DHT22;11556;51.194;3.800;2022-07-04T13:39:30;31.40;56.90
22779;DHT22;11556;51.194;3.800;2022-07-04T13:41:56;31.80;56.50
22779;DHT22;11556;51.194;3.800;2022-07-04T13:44:22;32.20;57.30
22779;DHT22;11556;51.194;3.800;2022-07-04T13:46:47;32.80;55.70
22779;DHT22;11556;51.194;3.800;2022-07-04T13:49:13;33.50;54.30
22779;DHT22;11556;51.194;3.800;2022-07-04T13:51:41;33.50;53.50
22779;DHT22;11556;51.194;3.800;2022-07-04T13:54:07;33.70;52.80
22779;DHT22;11556;51.194;3.800;2022-07-04T13:56:33;34.10;53.30
22779;DHT22;11556;51.194;3.800;2022-07-04T13:59:00;34.30;52.00
22779;DHT22;11556;51.194;3.800;2022-07-04T14:01:25;34.20;52.30
22779;DHT22;11556;51.194;3.800;2022-07-04T14:03:51;34.00;52.10
22779;DHT22;11556;51.194;3.800;2022-07-04T14:06:18;33.50;53.70
22779;DHT22;11556;51.194;3.800;2022-07-04T14:08:44;33.00;54.80
22779;DHT22;11556;51.194;3.800;2022-07-04T14:11:10;32.80;54.40
22779;DHT22;11556;51.194;3.800;2022-07-04T14:13:37;32.60;54.20
22779;DHT22;11556;51.194;3.800;2022-07-04T14:16:02;32.50;52.80
22779;DHT22;11556;51.194;3.800;2022-07-04T14:18:30;32.20;55.00
22779;DHT22;11556;51.194;3.800;2022-07-04T14:20:55;31.70;53.70
22779;DHT22;11556;51.194;3.800;2022-07-04T14:23:21;31.40;56.10
22779;DHT22;11556;51.194;3.800;2022-07-04T14:26:06;31.30;58.70
22779;DHT22;11556;51.194;3.800;2022-07-04T14:28:32;31.00;58.00
22779;DHT22;11556;51.194;3.800;2022-07-04T14:30:58;30.70;58.80
22779;DHT22;11556;51.194;3.800;2022-07-04T14:33:24;30.20;59.50
22779;DHT22;11556;51.194;3.800;2022-07-04T14:35:49;29.90;60.60
22779;DHT22;11556;51.194;3.800;2022-07-04T14:38:15;29.90;60.60
22779;DHT22;11556;51.194;3.800;2022-07-04T14:40:41;29.80;60.90
22779;DHT22;11556;51.194;3.800;2022-07-04T14:43:10;29.50;62.10
22779;DHT22;11556;51.194;3.800;2022-07-04T14:45:36;29.40;63.70
22779;DHT22;11556;51.194;3.800;2022-07-04T14:48:02;29.20;62.90
22779;DHT22;11556;51.194;3.800;2022-07-04T14:50:28;28.70;64.20
22779;DHT22;11556;51.194;3.800;2022-07-04T14:52:53;28.40;64.20
22779;DHT22;11556;51.194;3.800;2022-07-04T14:55:19;28.20;64.50
22779;DHT22;11556;51.194;3.800;2022-07-04T14:57:44;28.10;65.20
22779;DHT22;11556;51.194;3.800;2022-07-04T15:00:12;27.90;65.20
22779;DHT22;11556;51.194;3.800;2022-07-04T15:02:37;27.70;65.50
22779;DHT22;11556;51.194;3.800;2022-07-04T15:05:03;27.30;66.10
22779;DHT22;11556;51.194;3.800;2022-07-04T15:07:29;27.20;68.30
22779;DHT22;11556;51.194;3.800;2022-07-04T15:09:55;27.30;68.00
22779;DHT22;11556;51.194;3.800;2022-07-04T15:12:21;27.40;66.80
22779;DHT22;11556;51.194;3.800;2022-07-04T15:14:47;27.40;66.80
22779;DHT22;11556;51.194;3.800;2022-07-04T15:17:12;27.50;65.70
22779;DHT22;11556;51.194;3.800;2022-07-04T15:19:38;27.60;66.50
22779;DHT22;11556;51.194;3.800;2022-07-04T15:22:22;27.50;65.80
22779;DHT22;11556;51.194;3.800;2022-07-04T15:25:23;27.30;66.50
22779;DHT22;11556;51.194;3.800;2022-07-04T15:27:49;26.70;68.20
22779;DHT22;11556;51.194;3.800;2022-07-04T15:30:17;26.60;68.80
22779;DHT22;11556;51.194;3.800;2022-07-04T15:32:42;26.70;71.20
22779;DHT22;11556;51.194;3.800;2022-07-04T15:35:08;26.90;67.60
22779;DHT22;11556;51.194;3.800;2022-07-04T15:37:34;27.00;67.10
22779;DHT22;11556;51.194;3.800;2022-07-04T15:39:59;27.10;68.80
22779;DHT22;11556;51.194;3.800;2022-07-04T15:42:25;27.10;69.30
22779;DHT22;11556;51.194;3.800;2022-07-04T15:44:50;27.10;66.90
22779;DHT22;11556;51.194;3.800;2022-07-04T15:47:16;27.00;68.40
22779;DHT22;11556;51.194;3.800;2022-07-04T15:49:42;27.00;69.30
22779;DHT22;11556;51.194;3.800;2022-07-04T15:52:08;27.10;69.20
22779;DHT22;11556;51.194;3.800;2022-07-04T15:54:34;27.00;69.00
22779;DHT22;11556;51.194;3.800;2022-07-04T15:56:59;27.00;68.40
22779;DHT22;11556;51.194;3.800;2022-07-04T15:59:26;26.70;68.70
22779;DHT22;11556;51.194;3.800;2022-07-04T16:01:52;26.30;69.70
22779;DHT22;11556;51.194;3.800;2022-07-04T16:04:17;26.10;70.80